Time;durP1;ratioP1;P1;durP2;ratioP2;P2;SDS_P1;SDS_P2;PMS_P1;PMS_P2;Temp;Humidity;BMP_temperature;BMP_pressure;BME280_temperature;BME280_humidity;BME280_pressure;Samples;Min_cycle;Max_cycle;Signal;HPM_P1;HPM_P2
2021/11/28 00:01:18;;;;;;;15.65;8.68;;;;;;;-1.98;96.21;96538.69;4208490;27;20048;-72
2021/11/28 00:03:20;;;;;;;18.92;9.10;;;;;;;-1.93;97.04;96533.00;4206067;27;20040;-72
2021/11/28 00:05:24;;;;;;;16.15;8.35;;;;;;;-1.98;95.20;96539.47;4207746;27;20036;-72
2021/11/28 00:11:33;;;;;;;12.73;6.95;;;;;;;-2.00;96.20;96532.78;4205478;27;20043;-72
2021/11/28 00:13:46;;;;;;;13.43;7.30;;;;;;;-2.12;94.64;96522.78;4205246;27;20141;-72
2021/11/28 00:15:47;;;;;;;16.27;7.75;;;;;;;-2.18;96.09;96529.56;4211346;27;20040;-72
2021/11/28 00:17:47;;;;;;;14.00;7.15;;;;;;;-2.20;97.72;96526.44;4210210;27;20502;-72
2021/11/28 00:19:48;;;;;;;21.17;11.63;;;;;;;-2.26;96.67;96522.38;4204270;27;20460;-72
2021/11/28 00:21:48;;;;;;;15.02;9.23;;;;;;;-2.28;97.40;96521.94;4211736;27;20488;-72
2021/11/28 00:23:49;;;;;;;16.15;8.55;;;;;;;-2.36;96.73;96518.22;4206649;27;20035;-72
2021/11/28 00:25:49;;;;;;;14.32;9.50;;;;;;;-2.38;97.47;96520.50;4206104;27;20088;-72
2021/11/28 00:27:50;;;;;;;18.05;10.20;;;;;;;-2.42;97.84;96516.09;4210656;27;20153;-72
2021/11/28 00:29:51;;;;;;;12.95;8.30;;;;;;;-2.39;98.34;96515.41;4207919;27;20040;-72
2021/11/28 00:31:51;;;;;;;17.50;10.23;;;;;;;-2.41;97.67;96510.31;4217193;27;20051;-72
2021/11/28 00:33:52;;;;;;;12.48;8.50;;;;;;;-2.33;97.76;96503.97;4211593;27;20052;-72
2021/11/28 00:35:52;;;;;;;13.23;8.57;;;;;;;-2.27;97.87;96515.38;4206761;27;20226;-72
2021/11/28 00:37:53;;;;;;;16.30;9.27;;;;;;;-2.23;97.45;96512.75;4208679;27;20046;-72
2021/11/28 00:39:53;;;;;;;16.90;8.93;;;;;;;-2.24;96.68;96506.56;4205498;27;20365;-72
2021/11/28 00:41:54;;;;;;;16.25;8.80;;;;;;;-2.31;95.54;96509.88;4208326;27;20256;-72
2021/11/28 00:43:54;;;;;;;25.60;9.48;;;;;;;-2.33;94.67;96514.03;4205557;27;20040;-72
2021/11/28 00:45:55;;;;;;;20.60;10.13;;;;;;;-2.32;95.82;96508.28;4205378;27;20040;-72
2021/11/28 00:47:56;;;;;;;22.17;9.60;;;;;;;-2.34;95.66;96510.53;4205649;27;20072;-72
2021/11/28 00:52:12;;;;;;;30.92;11.63;;;;;;;-2.42;96.23;96506.03;4214396;27;20075;-72
2021/11/28 00:54:12;;;;;;;29.30;11.93;;;;;;;-2.51;96.77;96502.66;4207059;28;20427;-72
2021/11/28 00:56:13;;;;;;;31.42;12.27;;;;;;;-2.65;96.68;96513.88;4205144;28;20059;-72
2021/11/28 00:58:13;;;;;;;24.98;10.30;;;;;;;-2.76;96.88;96515.44;4205571;28;20047;-72
2021/11/28 01:00:14;;;;;;;22.95;9.80;;;;;;;-2.90;97.43;96513.06;4205736;27;20039;-72
2021/11/28 01:02:16;;;;;;;19.52;8.75;;;;;;;-2.98;97.81;96522.13;4205352;28;20028;-72
2021/11/28 01:04:17;;;;;;;19.88;8.75;;;;;;;-3.00;98.89;96515.44;4206837;28;20028;-72
2021/11/28 01:06:18;;;;;;;21.42;9.40;;;;;;;-2.90;100.00;96523.09;4204975;28;20058;-72
2021/11/28 01:08:18;;;;;;;20.40;8.77;;;;;;;-2.80;100.00;96519.19;4206022;28;20036;-72
2021/11/28 01:10:19;;;;;;;17.98;9.18;;;;;;;-2.69;100.00;96528.41;4211114;27;20054;-72
2021/11/28 01:12:20;;;;;;;19.00;8.90;;;;;;;-2.64;99.70;96534.41;4205190;28;20078;-72
2021/11/28 01:14:21;;;;;;;17.23;8.70;;;;;;;-2.56;98.84;96540.81;4207224;28;20052;-72
2021/11/28 01:16:22;;;;;;;33.42;11.63;;;;;;;-2.54;96.44;96541.28;4207172;28;20494;-72
2021/11/28 01:18:23;;;;;;;25.45;10.55;;;;;;;-2.61;95.62;96541.03;4206546;28;20032;-72
2021/11/28 01:20:23;;;;;;;28.90;11.23;;;;;;;-2.60;97.08;96537.19;4203736;28;20805;-72
2021/11/28 01:22:24;;;;;;;24.00;10.80;;;;;;;-2.65;97.07;96546.34;4210072;28;20036;-72
2021/11/28 01:24:25;;;;;;;25.75;10.27;;;;;;;-2.66;97.82;96552.88;4209758;27;20404;-72
2021/11/28 01:26:27;;;;;;;20.75;9.60;;;;;;;-2.59;97.83;96541.50;4208590;27;20484;-72
2021/11/28 01:28:28;;;;;;;15.05;8.02;;;;;;;-2.57;97.83;96550.06;4211338;27;20035;-72
2021/11/28 01:30:30;;;;;;;13.55;7.00;;;;;;;-2.55;96.87;96550.53;4209499;27;20036;-72
2021/11/28 01:32:30;;;;;;;21.73;7.10;;;;;;;-2.58;97.07;96540.34;4209750;27;20064;-72
2021/11/28 01:34:31;;;;;;;12.05;5.95;;;;;;;-2.67;96.09;96545.88;4207723;27;20646;-72
2021/11/28 01:36:32;;;;;;;15.23;6.25;;;;;;;-2.65;97.44;96559.91;4210553;27;20035;-72
2021/11/28 01:38:32;;;;;;;10.88;5.93;;;;;;;-2.70;96.94;96546.56;4209353;27;20031;-73
2021/11/28 01:40:33;;;;;;;12.00;5.85;;;;;;;-2.66;97.82;96558.28;4206934;27;20522;-72
2021/11/28 01:42:44;;;;;;;14.00;5.32;;;;;;;-2.66;96.99;96552.88;4210318;27;20356;-72
2021/11/28 01:44:44;;;;;;;8.55;5.07;;;;;;;-2.65;96.15;96546.34;4209921;27;20051;-72
2021/11/28 01:46:45;;;;;;;8.40;4.85;;;;;;;-2.64;95.71;96544.44;4213467;27;20071;-72
2021/11/28 01:48:46;;;;;;;9.85;5.65;;;;;;;-2.65;96.25;96543.66;4211663;27;20040;-72
2021/11/28 01:50:49;;;;;;;10.93;5.93;;;;;;;-2.76;95.06;96544.44;4210976;27;20070;-72
2021/11/28 01:52:50;;;;;;;9.50;6.00;;;;;;;-2.80;97.18;96543.53;4208720;27;20048;-72
2021/11/28 01:54:50;;;;;;;13.55;6.20;;;;;;;-2.84;97.45;96549.59;4207783;27;20344;-72
2021/11/28 01:56:51;;;;;;;13.85;6.88;;;;;;;-2.90;97.25;96544.75;4208078;27;20052;-72
2021/11/28 01:58:52;;;;;;;14.57;6.80;;;;;;;-2.82;98.59;96536.53;4208453;27;20480;-72
2021/11/28 02:00:56;;;;;;;13.43;6.03;;;;;;;-2.73;99.10;96544.56;4209211;27;20537;-72
2021/11/28 02:02:58;;;;;;;11.45;5.50;;;;;;;-2.73;98.85;96538.31;4211462;27;20747;-72
2021/11/28 02:04:59;;;;;;;10.88;5.75;;;;;;;-2.67;99.11;96543.19;4209371;27;20059;-72
2021/11/28 02:07:00;;;;;;;13.02;6.03;;;;;;;-2.71;97.96;96539.59;4208165;27;20032;-72
2021/11/28 02:09:03;;;;;;;9.02;5.78;;;;;;;-2.74;98.66;96548.38;4209464;27;20163;-72
2021/11/28 02:11:05;;;;;;;10.25;5.75;;;;;;;-2.78;98.87;96543.97;4208940;27;20032;-72
2021/11/28 02:13:05;;;;;;;15.53;6.23;;;;;;;-2.83;99.22;96543.06;4210461;27;20333;-72
2021/11/28 02:15:08;;;;;;;9.10;5.90;;;;;;;-2.77;99.43;96545.56;4211241;27;20315;-72
2021/11/28 02:17:10;;;;;;;9.48;5.82;;;;;;;-2.75;99.76;96552.19;4208857;27;20048;-72
2021/11/28 02:19:10;;;;;;;9.32;5.88;;;;;;;-2.72;99.27;96542.63;4206800;27;20046;-72
2021/11/28 02:21:12;;;;;;;10.10;4.63;;;;;;;-2.79;97.88;96540.50;4207861;27;20048;-72
2021/11/28 02:23:14;;;;;;;9.70;5.65;;;;;;;-2.89;98.10;96530.91;4207901;27;20037;-72
2021/11/28 02:25:14;;;;;;;9.60;6.20;;;;;;;-2.91;98.47;96530.44;4207635;27;20051;-72
2021/11/28 02:27:15;;;;;;;16.08;8.55;;;;;;;-2.96;98.52;96519.84;4209210;27;20490;-72
2021/11/28 02:29:16;;;;;;;25.73;12.07;;;;;;;-2.96;98.94;96516.34;4206406;27;20050;-72
2021/11/28 02:31:17;;;;;;;29.50;12.75;;;;;;;-3.00;99.31;96508.09;4209072;27;20071;-72
2021/11/28 02:33:17;;;;;;;38.15;15.57;;;;;;;-2.98;99.27;96514.00;4214235;27;20039;-72
2021/11/28 02:35:19;;;;;;;46.03;19.67;;;;;;;-3.00;99.03;96512.72;4207106;27;20094;-72
2021/11/28 02:37:19;;;;;;;59.33;20.33;;;;;;;-3.00;99.21;96516.22;4207403;27;20631;-72
2021/11/28 02:39:20;;;;;;;36.10;14.23;;;;;;;-3.03;98.88;96522.31;4209199;27;20159;-72
2021/11/28 02:41:21;;;;;;;33.88;11.82;;;;;;;-3.06;99.80;96517.59;4207778;27;20036;-72
2021/11/28 02:43:22;;;;;;;27.00;12.07;;;;;;;-3.04;99.60;96511.84;4205760;27;20036;-73
2021/11/28 02:45:26;;;;;;;26.23;11.43;;;;;;;-2.97;100.00;96509.38;4210159;27;20321;-72
2021/11/28 02:47:27;;;;;;;28.13;10.48;;;;;;;-2.89;100.00;96511.97;4208881;27;20563;-72
2021/11/28 02:49:27;;;;;;;21.15;9.43;;;;;;;-2.82;99.73;96514.09;4209866;27;20044;-72
2021/11/28 02:51:28;;;;;;;27.65;11.35;;;;;;;-2.75;99.56;96510.81;4208413;27;20055;-73
2021/11/28 02:53:29;;;;;;;23.85;10.45;;;;;;;-2.70;99.56;96513.31;4209628;27;20473;-72
2021/11/28 02:55:34;;;;;;;29.58;11.68;;;;;;;-2.63;99.27;96508.91;4208647;27;20361;-72
2021/11/28 02:57:34;;;;;;;26.50;9.65;;;;;;;-2.68;98.08;96513.75;4210331;27;20837;-72
2021/11/28 02:59:35;;;;;;;16.55;7.95;;;;;;;-2.74;97.76;96515.88;4211494;27;20032;-72
2021/11/28 03:01:35;;;;;;;20.17;8.80;;;;;;;-2.71;98.12;96520.63;4207823;27;20097;-72
2021/11/28 03:03:36;;;;;;;20.33;9.30;;;;;;;-2.74;98.92;96513.19;4206555;27;20500;-72
2021/11/28 03:05:37;;;;;;;16.52;7.90;;;;;;;-2.73;98.75;96524.78;4221912;27;20075;-72
2021/11/28 03:07:39;;;;;;;17.67;6.78;;;;;;;-2.72;98.89;96524.47;4211447;27;20371;-72
2021/11/28 03:09:40;;;;;;;;;;;;;;;-2.71;98.85;96522.56;4209114;27;20867;-72
2021/11/28 03:11:40;;;;;;;10.45;6.38;;;;;;;-2.66;99.17;96525.03;4206641;27;19912;-72
2021/11/28 03:13:44;;;;;;;10.65;6.28;;;;;;;-2.73;98.05;96531.03;4208335;27;20048;-72
2021/11/28 03:15:45;;;;;;;10.85;6.25;;;;;;;-2.69;98.24;96531.13;4212019;27;20047;-72
2021/11/28 03:17:46;;;;;;;10.57;6.28;;;;;;;-2.75;98.23;96530.56;4209635;27;20048;-72
2021/11/28 03:19:48;;;;;;;12.57;6.20;;;;;;;-2.71;99.22;96544.22;4206440;27;20040;-72
2021/11/28 03:21:49;;;;;;;12.07;6.13;;;;;;;-2.64;98.77;96539.81;4207562;27;20078;-72
2021/11/28 03:23:51;;;;;;;8.63;6.32;;;;;;;-2.59;98.70;96547.69;4209192;27;20277;-72
2021/11/28 03:26:10;;;;;;;11.15;6.15;;;;;;;-2.69;97.04;96539.25;4210595;27;20485;-72
2021/11/28 03:28:14;;;;;;;10.93;5.80;;;;;;;-2.78;97.13;96543.97;4205976;27;20105;-72
2021/11/28 03:30:16;;;;;;;9.70;5.70;;;;;;;-2.85;98.13;96537.22;4207473;27;20142;-72
2021/11/28 03:32:17;;;;;;;10.82;7.03;;;;;;;-2.76;99.47;96541.72;4205619;27;20024;-72
2021/11/28 03:34:18;;;;;;;12.38;6.43;;;;;;;-2.83;98.54;96537.66;4206775;27;20036;-72
2021/11/28 03:36:22;;;;;;;10.20;5.78;;;;;;;-2.90;97.62;96542.03;4207994;27;20031;-72
2021/11/28 03:38:23;;;;;;;12.48;6.30;;;;;;;-2.92;98.37;96545.09;4205272;27;20040;-72
2021/11/28 03:40:24;;;;;;;10.43;6.07;;;;;;;-2.97;98.51;96533.72;4209257;27;20526;-72
2021/11/28 03:42:25;;;;;;;8.73;5.68;;;;;;;-3.07;98.58;96537.63;4209652;27;20113;-72
2021/11/28 03:44:26;;;;;;;11.38;5.88;;;;;;;-3.12;98.59;96538.66;4207277;27;20032;-72
2021/11/28 03:46:28;;;;;;;12.82;7.10;;;;;;;-3.12;99.87;96533.25;4205400;27;20039;-72
2021/11/28 03:48:29;;;;;;;15.00;7.03;;;;;;;-2.99;100.00;96536.75;4209534;27;20040;-72
2021/11/28 03:50:29;;;;;;;10.23;6.25;;;;;;;-2.98;100.00;96524.81;4207129;27;20054;-72
2021/11/28 03:52:31;;;;;;;11.80;7.00;;;;;;;-2.99;99.39;96533.25;4205483;27;20090;-72
2021/11/28 03:54:32;;;;;;;11.35;6.05;;;;;;;-3.06;99.41;96528.41;4205962;27;20444;-72
2021/11/28 03:56:32;;;;;;;13.27;5.80;;;;;;;-3.09;99.05;96523.66;4207835;27;20162;-72
2021/11/28 03:58:35;;;;;;;10.27;5.88;;;;;;;-3.03;99.63;96532.34;4208126;27;20032;-72
2021/11/28 04:00:36;;;;;;;10.85;6.18;;;;;;;-3.11;99.59;96515.88;4204239;27;20036;-72
2021/11/28 04:02:36;;;;;;;10.00;5.82;;;;;;;-3.12;100.00;96511.59;4208387;27;20036;-72
2021/11/28 04:04:37;;;;;;;13.85;6.75;;;;;;;-3.10;100.00;96508.56;4206999;27;20318;-72
2021/11/28 04:06:37;;;;;;;12.88;6.78;;;;;;;-3.12;100.00;96506.19;4204857;27;20510;-72
2021/11/28 04:08:39;;;;;;;11.60;6.63;;;;;;;-3.09;100.00;96509.34;4207080;27;20043;-72
2021/11/28 04:10:39;;;;;;;13.02;7.07;;;;;;;-3.14;100.00;96513.88;4206979;27;20081;-72
2021/11/28 04:12:40;;;;;;;12.18;6.53;;;;;;;-3.11;100.00;96507.78;4207265;27;20028;-72
2021/11/28 04:14:41;;;;;;;12.13;6.70;;;;;;;-3.12;100.00;96511.59;4211962;27;20487;-72
2021/11/28 04:16:42;;;;;;;15.55;6.63;;;;;;;-3.09;100.00;96512.06;4207124;27;20486;-72
2021/11/28 04:18:43;;;;;;;12.45;6.78;;;;;;;-3.14;100.00;96519.28;4205498;28;20195;-72
2021/11/28 04:20:44;;;;;;;10.77;6.53;;;;;;;-3.12;100.00;96517.03;4206940;27;20404;-73
2021/11/28 04:22:45;;;;;;;11.50;6.77;;;;;;;-3.06;100.00;96522.19;4210164;27;20059;-72
2021/11/28 04:24:45;;;;;;;12.35;6.25;;;;;;;-3.07;100.00;96524.09;4205964;27;20483;-72
2021/11/28 04:26:46;;;;;;;11.88;6.00;;;;;;;-2.98;100.00;96527.53;4208484;27;20278;-72
2021/11/28 04:28:47;;;;;;;9.98;5.97;;;;;;;-2.99;100.00;96531.31;4205770;27;20070;-72
2021/11/28 04:30:48;;;;;;;9.50;5.95;;;;;;;-2.92;99.44;96528.84;4209497;27;20954;-72
2021/11/28 04:32:48;;;;;;;10.95;6.00;;;;;;;-2.92;99.40;96542.38;4211463;27;20120;-72
2021/11/28 04:34:49;;;;;;;11.05;6.32;;;;;;;-2.90;99.57;96540.13;4205940;27;20072;-72
2021/11/28 04:36:49;;;;;;;9.30;5.30;;;;;;;-2.97;97.87;96539.94;4206432;27;20463;-72
2021/11/28 04:38:50;;;;;;;11.35;6.43;;;;;;;-3.05;98.03;96545.44;4206135;27;20036;-72
2021/11/28 04:40:50;;;;;;;10.05;5.97;;;;;;;-3.15;98.41;96546.63;4207210;27;20086;-72
2021/11/28 04:42:51;;;;;;;9.10;6.20;;;;;;;-3.20;98.96;96552.28;4205600;27;20044;-72
2021/11/28 04:44:51;;;;;;;10.98;6.95;;;;;;;-3.28;99.49;96548.56;4207033;27;20044;-72
2021/11/28 04:46:52;;;;;;;9.13;5.80;;;;;;;-3.34;100.00;96546.38;4206981;27;20055;-72
2021/11/28 04:48:52;;;;;;;12.43;6.30;;;;;;;-3.40;100.00;96534.97;4205184;28;20090;-72
2021/11/28 04:50:53;;;;;;;14.00;5.93;;;;;;;-3.46;100.00;96537.13;4208316;27;20048;-72
2021/11/28 04:52:53;;;;;;;9.73;6.10;;;;;;;-3.54;100.00;96540.72;4205560;27;20048;-72
2021/11/28 04:54:54;;;;;;;11.57;5.90;;;;;;;-3.55;100.00;96528.31;4206690;28;20135;-72
2021/11/28 04:56:54;;;;;;;14.20;6.35;;;;;;;-3.51;100.00;96531.13;4205054;28;20135;-72
2021/11/28 04:58:55;;;;;;;13.85;6.20;;;;;;;-3.45;100.00;96530.59;4204407;28;20040;-72
2021/11/28 05:00:56;;;;;;;12.68;6.93;;;;;;;-3.37;100.00;96534.34;4207810;27;20039;-72
2021/11/28 05:02:57;;;;;;;13.95;6.65;;;;;;;-3.31;100.00;96534.88;4207312;28;20429;-73
2021/11/28 05:04:57;;;;;;;12.43;6.25;;;;;;;-3.32;100.00;96533.31;4208640;28;20071;-72
2021/11/28 05:06:58;;;;;;;13.80;6.55;;;;;;;-3.32;100.00;96536.03;4203878;28;20385;-72
2021/11/28 05:08:58;;;;;;;8.48;5.57;;;;;;;-3.28;100.00;96532.31;4206352;28;20555;-72
2021/11/28 05:10:59;;;;;;;10.25;5.97;;;;;;;-3.23;100.00;96529.38;4207174;28;20071;-72
2021/11/28 05:12:59;;;;;;;12.60;6.30;;;;;;;-3.23;99.73;96534.78;4205126;28;20432;-72
2021/11/28 05:14:59;;;;;;;10.20;5.55;;;;;;;-3.27;99.98;96530.41;4209070;28;20225;-72
2021/11/28 05:17:00;;;;;;;9.57;6.05;;;;;;;-3.33;99.84;96531.75;4212622;28;20040;-73
2021/11/28 05:19:00;;;;;;;16.83;7.32;;;;;;;-3.28;100.00;96531.53;4208453;27;20048;-73
2021/11/28 05:21:01;;;;;;;12.13;6.75;;;;;;;-3.31;100.00;96534.88;4210416;27;20422;-72
2021/11/28 05:23:01;;;;;;;12.40;6.82;;;;;;;-3.25;99.93;96541.66;4207710;28;20044;-72
2021/11/28 05:25:04;;;;;;;10.52;6.28;;;;;;;-3.22;99.18;96544.50;4209007;28;20070;-72
2021/11/28 05:27:05;;;;;;;10.35;6.35;;;;;;;-3.23;99.32;96542.13;4204322;28;20477;-72
2021/11/28 05:29:06;;;;;;;15.43;7.75;;;;;;;-3.30;99.30;96541.91;4205213;28;20135;-72
2021/11/28 05:31:06;;;;;;;11.15;6.63;;;;;;;-3.33;99.84;96550.66;4206602;28;20135;-72
2021/11/28 05:33:07;;;;;;;10.38;6.18;;;;;;;-3.31;100.00;96543.81;4211946;28;20052;-72
2021/11/28 05:35:07;;;;;;;12.88;6.50;;;;;;;-3.31;100.00;96548.41;4204043;28;20058;-72
2021/11/28 05:37:08;;;;;;;9.98;5.72;;;;;;;-3.27;100.00;96544.72;4206064;28;20036;-72
2021/11/28 05:39:09;;;;;;;12.85;6.13;;;;;;;-3.24;100.00;96554.84;4205350;28;20524;-72
2021/11/28 05:41:10;;;;;;;14.50;6.88;;;;;;;-3.21;100.00;96559.63;4204113;28;20365;-72
2021/11/28 05:43:10;;;;;;;13.77;6.07;;;;;;;-3.24;100.00;96554.84;4207071;28;20048;-72
2021/11/28 05:45:11;;;;;;;9.75;6.32;;;;;;;-3.25;100.00;96555.19;4206385;28;20365;-72
2021/11/28 05:47:11;;;;;;;10.68;6.85;;;;;;;-3.26;100.00;96559.81;4206502;28;20503;-72
2021/11/28 05:49:12;;;;;;;11.25;6.47;;;;;;;-3.19;100.00;96567.38;4208503;27;20543;-72
2021/11/28 05:51:13;;;;;;;12.77;6.20;;;;;;;-3.06;100.00;96568.19;4209257;27;20054;-72
2021/11/28 05:53:15;;;;;;;11.95;6.78;;;;;;;-3.08;100.00;96563.13;4206193;27;20043;-72
2021/11/28 05:55:16;;;;;;;13.95;6.55;;;;;;;-3.11;99.84;96569.22;4206291;28;20090;-72
2021/11/28 05:57:16;;;;;;;13.32;6.43;;;;;;;-3.11;100.00;96552.97;4207074;28;20044;-72
2021/11/28 05:59:17;;;;;;;11.32;6.82;;;;;;;-3.05;100.00;96567.09;4205164;28;20570;-72
2021/11/28 06:01:18;;;;;;;16.58;6.55;;;;;;;-3.04;100.00;96568.66;4205254;28;20504;-72
2021/11/28 06:03:18;;;;;;;11.82;6.50;;;;;;;-3.01;100.00;96576.88;4205767;27;20083;-72
2021/11/28 06:05:19;;;;;;;9.40;5.72;;;;;;;-2.99;100.00;96571.13;4211371;28;20047;-72
2021/11/28 06:07:19;;;;;;;12.70;6.65;;;;;;;-2.98;100.00;96572.72;4205118;28;20421;-72
2021/11/28 06:09:19;;;;;;;9.50;5.78;;;;;;;-2.96;100.00;96575.88;4204418;28;20044;-72
2021/11/28 06:11:20;;;;;;;8.23;5.63;;;;;;;-2.94;100.00;96577.13;4207425;28;20395;-72
2021/11/28 06:13:21;;;;;;;10.73;6.18;;;;;;;-2.86;100.00;96564.63;4212141;27;20495;-72
2021/11/28 06:15:21;;;;;;;9.82;6.05;;;;;;;-2.81;100.00;96569.81;4212234;27;20044;-72
2021/11/28 06:17:21;;;;;;;8.98;5.85;;;;;;;-2.73;100.00;96574.34;4215662;27;20364;-72
2021/11/28 06:19:22;;;;;;;12.07;5.97;;;;;;;-2.68;100.00;96576.78;4213416;27;20048;-72
2021/11/28 06:21:23;;;;;;;12.70;6.65;;;;;;;-2.63;100.00;96573.88;4212135;27;20054;-72
2021/11/28 06:23:23;;;;;;;11.85;6.25;;;;;;;-2.56;100.00;96571.41;4211162;27;20038;-72
2021/11/28 06:25:24;;;;;;;11.38;5.40;;;;;;;-2.52;99.88;96573.41;4211563;27;20032;-72
2021/11/28 06:27:24;;;;;;;14.02;6.35;;;;;;;-2.52;99.66;96570.72;4210123;27;20051;-72
2021/11/28 06:29:25;;;;;;;12.88;6.63;;;;;;;-2.48;99.95;96571.59;4210987;27;20419;-72
2021/11/28 06:31:25;;;;;;;12.15;5.80;;;;;;;-2.49;99.63;96570.03;4212721;27;20306;-72
2021/11/28 06:33:26;;;;;;;9.27;5.53;;;;;;;-2.47;99.80;96576.69;4212298;27;20050;-72
2021/11/28 06:35:26;;;;;;;10.23;6.18;;;;;;;-2.48;99.80;96585.13;4213895;27;20043;-72
2021/11/28 06:37:27;;;;;;;10.80;6.38;;;;;;;-2.54;99.58;96571.06;4211650;27;20055;-72
2021/11/28 06:39:27;;;;;;;10.18;6.50;;;;;;;-2.59;100.00;96573.97;4210778;27;20126;-72
2021/11/28 06:41:28;;;;;;;11.43;6.60;;;;;;;-2.57;100.00;96575.22;4210439;27;20063;-72
2021/11/28 06:43:28;;;;;;;10.73;6.22;;;;;;;-2.50;99.62;96569.22;4213248;27;20040;-72
2021/11/28 06:45:29;;;;;;;9.95;6.70;;;;;;;-2.48;99.99;96577.81;4211364;27;20464;-72
2021/11/28 06:47:30;;;;;;;11.23;7.13;;;;;;;-2.47;100.00;96578.63;4211872;27;20055;-72
2021/11/28 06:49:30;;;;;;;10.93;7.05;;;;;;;-2.40;100.00;96578.81;4217646;27;20099;-72
2021/11/28 06:51:31;;;;;;;13.50;6.88;;;;;;;-2.42;99.39;96575.66;4214583;27;20460;-72
2021/11/28 06:53:31;;;;;;;17.20;8.60;;;;;;;-2.43;99.38;96574.09;4217446;27;20039;-72
2021/11/28 06:55:32;;;;;;;18.08;8.52;;;;;;;-2.46;100.00;96572.84;4210117;27;20047;-72
2021/11/28 06:57:33;;;;;;;14.43;7.28;;;;;;;-2.46;100.00;96577.47;4213221;27;20071;-72
2021/11/28 06:59:36;;;;;;;13.93;6.82;;;;;;;-2.47;99.94;96576.69;4214802;27;20050;-72
2021/11/28 07:01:36;;;;;;;11.75;6.93;;;;;;;-2.46;100.00;96580.19;4213055;27;20101;-72
2021/11/28 07:03:37;;;;;;;13.90;6.75;;;;;;;-2.48;100.00;96580.53;4210552;27;20116;-73
2021/11/28 07:05:38;;;;;;;13.80;6.60;;;;;;;-2.48;99.77;96574.31;4210788;27;20135;-72
2021/11/28 07:07:38;;;;;;;12.52;6.70;;;;;;;-2.53;99.72;96574.53;4211807;27;20784;-72
2021/11/28 07:09:39;;;;;;;13.98;6.57;;;;;;;-2.55;100.00;96572.97;4205181;27;20028;-72
2021/11/28 07:11:39;;;;;;;13.20;6.70;;;;;;;-2.55;100.00;96581.09;4211829;27;20389;-72
2021/11/28 07:13:40;;;;;;;11.75;6.78;;;;;;;-2.59;100.00;96572.06;4211004;27;20042;-72
2021/11/28 07:15:40;;;;;;;12.38;7.38;;;;;;;-2.57;100.00;96583.34;4206482;27;20057;-72
2021/11/28 07:17:41;;;;;;;13.43;7.95;;;;;;;-2.58;100.00;96591.81;4212335;27;20086;-72
2021/11/28 07:19:43;;;;;;;15.93;9.02;;;;;;;-2.63;100.00;96579.28;4210445;27;20028;-72
2021/11/28 07:21:44;;;;;;;;;;;;;;;-2.63;100.00;96594.75;4211876;27;20043;-72
2021/11/28 07:23:48;;;;;;;18.77;10.50;;;;;;;-2.63;100.00;96581.22;4206987;27;20371;-72
2021/11/28 07:25:49;;;;;;;25.67;12.18;;;;;;;-2.64;100.00;96576.94;4212860;27;20207;-72
2021/11/28 07:27:49;;;;;;;24.83;13.05;;;;;;;-2.62;100.00;96582.78;4209237;27;20036;-72
2021/11/28 07:29:50;;;;;;;24.02;12.38;;;;;;;-2.64;100.00;96585.06;4210422;27;20078;-72
2021/11/28 07:31:50;;;;;;;21.48;12.15;;;;;;;-2.68;100.00;96587.63;4211927;27;20040;-72
2021/11/28 07:33:51;;;;;;;31.65;13.10;;;;;;;-2.61;100.00;96590.56;4211376;27;20111;-72
2021/11/28 07:35:51;;;;;;;19.13;11.82;;;;;;;-2.60;100.00;96594.06;4211565;27;20048;-72
2021/11/28 07:37:52;;;;;;;18.05;11.10;;;;;;;-2.64;100.00;96591.25;4211481;27;20055;-72
2021/11/28 07:39:52;;;;;;;17.63;9.63;;;;;;;-2.68;100.00;96592.25;4212557;27;20056;-72
2021/11/28 07:41:53;;;;;;;22.60;11.18;;;;;;;-2.68;100.00;96598.47;4212439;27;20103;-72
2021/11/28 07:43:54;;;;;;;20.38;9.80;;;;;;;-2.70;100.00;96597.22;4211879;27;20058;-72
2021/11/28 07:45:54;;;;;;;17.23;10.35;;;;;;;-2.72;100.00;96596.78;4209012;27;20040;-72
2021/11/28 07:47:55;;;;;;;24.15;11.63;;;;;;;-2.75;100.00;96592.81;4212861;27;20135;-72
2021/11/28 07:49:55;;;;;;;26.48;15.25;;;;;;;-2.77;100.00;96589.66;4208783;27;20052;-72
2021/11/28 07:51:55;;;;;;;37.08;18.73;;;;;;;-2.78;100.00;96590.00;4207976;27;20119;-72
2021/11/28 07:53:57;;;;;;;32.95;15.20;;;;;;;-2.75;100.00;96600.13;4209882;27;20074;-72
2021/11/28 07:55:58;;;;;;;28.98;14.60;;;;;;;-2.74;100.00;96599.78;4212073;27;20382;-72
2021/11/28 07:58:00;;;;;;;27.05;13.02;;;;;;;-2.65;100.00;96602.41;4209889;27;20082;-72
2021/11/28 08:00:01;;;;;;;26.55;13.85;;;;;;;-2.58;100.00;96602.63;4215666;27;20035;-72
2021/11/28 08:02:02;;;;;;;25.92;11.73;;;;;;;-2.56;100.00;96603.09;4213311;27;20052;-72
2021/11/28 08:04:02;;;;;;;15.75;10.35;;;;;;;-2.58;99.34;96597.22;4209774;27;20092;-72
2021/11/28 08:06:03;;;;;;;21.80;11.55;;;;;;;-2.59;100.00;96601.06;4208035;27;20459;-72
2021/11/28 08:08:04;;;;;;;17.67;10.98;;;;;;;-2.63;99.55;96595.53;4209277;27;20129;-72
2021/11/28 08:10:06;;;;;;;26.35;12.80;;;;;;;-2.69;99.42;96602.28;4210455;27;20046;-72
2021/11/28 08:12:07;;;;;;;22.10;11.65;;;;;;;-2.77;99.33;96605.91;4209091;27;20044;-72
2021/11/28 08:14:07;;;;;;;21.52;11.55;;;;;;;-2.75;100.00;96605.56;4209129;27;20444;-72
2021/11/28 08:16:08;;;;;;;27.13;14.45;;;;;;;-2.78;99.19;96609.72;4207348;27;20039;-72
2021/11/28 08:18:08;;;;;;;24.20;13.27;;;;;;;-2.86;99.46;96608.69;4206330;27;20100;-72
2021/11/28 08:20:10;;;;;;;28.05;15.82;;;;;;;-2.85;100.00;96609.50;4204884;27;20404;-72
2021/11/28 08:22:10;;;;;;;26.80;14.82;;;;;;;-2.94;99.50;96609.59;4206698;27;20038;-72
2021/11/28 08:24:10;;;;;;;27.23;14.15;;;;;;;-2.89;100.00;96614.00;4205999;27;20063;-72
2021/11/28 08:26:11;;;;;;;29.88;15.27;;;;;;;-2.84;100.00;96613.78;4204134;28;20027;-72
2021/11/28 08:28:11;;;;;;;35.10;15.95;;;;;;;-2.80;100.00;96616.63;4210510;27;20235;-72
2021/11/28 08:30:15;;;;;;;26.85;14.02;;;;;;;-2.83;99.81;96626.19;4207955;27;20089;-72
2021/11/28 08:32:15;;;;;;;24.08;13.48;;;;;;;-2.83;100.00;96623.47;4209083;27;20070;-72
2021/11/28 08:34:16;;;;;;;29.08;13.38;;;;;;;-2.82;100.00;96620.44;4209021;27;20403;-73
2021/11/28 08:36:19;;;;;;;25.65;12.77;;;;;;;-2.74;100.00;96620.66;4207190;27;20024;-72
2021/11/28 08:38:20;;;;;;;19.10;12.02;;;;;;;-2.69;100.00;96629.38;4208852;27;20509;-72
2021/11/28 08:40:20;;;;;;;23.50;11.55;;;;;;;-2.66;99.45;96628.69;4207664;27;20048;-72
2021/11/28 08:42:21;;;;;;;22.30;11.07;;;;;;;-2.63;98.20;96633.44;4210680;27;20054;-72
2021/11/28 08:44:22;;;;;;;23.55;11.77;;;;;;;-2.61;98.65;96630.38;4206666;28;20525;-72
2021/11/28 08:46:23;;;;;;;23.65;10.77;;;;;;;-2.59;98.41;96634.34;4208343;28;20459;-72
2021/11/28 08:48:23;;;;;;;26.23;11.32;;;;;;;-2.56;97.77;96641.81;4212743;28;20044;-72
2021/11/28 08:50:24;;;;;;;26.30;11.90;;;;;;;-2.53;98.70;96632.19;4211931;27;20583;-72
2021/11/28 08:52:24;;;;;;;19.13;10.07;;;;;;;-2.47;98.54;96633.56;4207582;27;20046;-72
2021/11/28 08:54:25;;;;;;;20.27;9.75;;;;;;;-2.43;98.35;96630.97;4211148;28;20064;-72
2021/11/28 08:56:27;;;;;;;20.80;9.15;;;;;;;-2.30;98.49;96643.38;4207775;27;20158;-72
2021/11/28 08:58:27;;;;;;;26.33;10.95;;;;;;;-2.17;98.43;96639.53;4210458;27;20551;-73
2021/11/28 09:00:28;;;;;;;21.52;9.57;;;;;;;-2.10;98.05;96634.31;4212338;27;20139;-72
2021/11/28 09:02:28;;;;;;;16.63;8.93;;;;;;;-1.96;97.86;96650.25;4208447;27;20482;-72
2021/11/28 09:04:29;;;;;;;16.65;8.68;;;;;;;-1.86;97.29;96648.97;4209917;28;20515;-72
2021/11/28 09:06:29;;;;;;;17.58;9.25;;;;;;;-1.81;96.91;96649.56;4211664;27;20090;-72
2021/11/28 09:08:29;;;;;;;23.13;9.75;;;;;;;-1.74;96.96;96641.63;4210013;27;20483;-72
2021/11/28 09:10:30;;;;;;;20.58;10.35;;;;;;;-1.67;97.99;96640.22;4211721;28;20035;-72
2021/11/28 09:12:31;;;;;;;26.67;10.38;;;;;;;-1.63;98.10;96641.16;4208062;28;20391;-72
2021/11/28 09:14:33;;;;;;;20.63;10.10;;;;;;;-1.63;98.15;96633.78;4207536;28;20036;-72
2021/11/28 09:16:33;;;;;;;17.73;9.23;;;;;;;-1.61;98.17;96638.88;4205527;28;20499;-72
2021/11/28 09:19:13;;;;;;;14.95;7.63;;;;;;;-1.65;97.91;96638.78;4203346;28;20040;-72
2021/11/28 09:21:01;;;;;;;14.93;7.45;;;;;;;-1.64;97.39;96639.56;4201854;28;20063;-72
2021/11/28 09:25:02;;;;;;;22.70;8.02;;;;;;;-1.65;96.41;96627.94;4206246;28;20040;-72
2021/11/28 09:27:12;;;;;;;17.30;8.80;;;;;;;-1.71;96.47;96619.25;4207028;27;20040;-72
2021/11/28 09:29:13;;;;;;;20.33;9.05;;;;;;;-1.70;96.56;96637.09;4206057;28;20531;-72